sensor_id;sensor_type;location;lat;lon;timestamp;temperature;humidity
59999;DHT22;45859;51.378;6.736;2022-10-17T00:01:12;15.50;99.90
59999;DHT22;45859;51.378;6.736;2022-10-17T00:03:38;15.50;99.90
59999;DHT22;45859;51.378;6.736;2022-10-17T00:06:06;15.50;99.90
59999;DHT22;45859;51.378;6.736;2022-10-17T00:08:32;15.50;99.90
59999;DHT22;45859;51.378;6.736;2022-10-17T00:11:00;15.50;99.90
59999;DHT22;45859;51.378;6.736;2022-10-17T00:13:26;15.50;99.90
59999;DHT22;45859;51.378;6.736;2022-10-17T00:15:52;15.60;99.90
59999;DHT22;45859;51.378;6.736;2022-10-17T00:18:17;15.60;99.90
59999;DHT22;45859;51.378;6.736;2022-10-17T00:20:43;15.70;99.90
59999;DHT22;45859;51.378;6.736;2022-10-17T00:23:09;15.70;99.90
59999;DHT22;45859;51.378;6.736;2022-10-17T00:25:35;15.70;99.90
59999;DHT22;45859;51.378;6.736;2022-10-17T00:28:02;15.70;99.90
59999;DHT22;45859;51.378;6.736;2022-10-17T00:30:28;15.70;99.90
59999;DHT22;45859;51.378;6.736;2022-10-17T00:32:54;15.80;99.90
59999;DHT22;45859;51.378;6.736;2022-10-17T00:35:19;15.80;99.90
59999;DHT22;45859;51.378;6.736;2022-10-17T00:37:45;15.90;99.90
59999;DHT22;45859;51.378;6.736;2022-10-17T00:40:12;15.90;99.90
59999;DHT22;45859;51.378;6.736;2022-10-17T00:42:37;15.90;99.90
59999;DHT22;45859;51.378;6.736;2022-10-17T00:45:18;15.90;99.90
59999;DHT22;45859;51.378;6.736;2022-10-17T00:47:47;16.00;99.90
59999;DHT22;45859;51.378;6.736;2022-10-17T00:50:15;16.00;99.90
59999;DHT22;45859;51.378;6.736;2022-10-17T00:52:41;16.00;99.90
59999;DHT22;45859;51.378;6.736;2022-10-17T00:55:20;16.00;99.90
59999;DHT22;45859;51.378;6.736;2022-10-17T00:57:47;16.00;99.90
59999;DHT22;45859;51.378;6.736;2022-10-17T01:00:14;16.00;99.90
59999;DHT22;45859;51.378;6.736;2022-10-17T01:02:40;16.00;99.90
59999;DHT22;45859;51.378;6.736;2022-10-17T01:05:07;16.00;99.90
59999;DHT22;45859;51.378;6.736;2022-10-17T01:07:33;16.00;99.90
59999;DHT22;45859;51.378;6.736;2022-10-17T01:09:59;16.00;99.90
59999;DHT22;45859;51.378;6.736;2022-10-17T01:12:40;16.10;99.90
59999;DHT22;45859;51.378;6.736;2022-10-17T01:25:52;16.10;99.90
59999;DHT22;45859;51.378;6.736;2022-10-17T01:28:31;16.00;99.90
59999;DHT22;45859;51.378;6.736;2022-10-17T01:31:15;16.10;99.90
59999;DHT22;45859;51.378;6.736;2022-10-17T01:36:40;16.10;99.90
59999;DHT22;45859;51.378;6.736;2022-10-17T01:39:22;16.20;99.90
59999;DHT22;45859;51.378;6.736;2022-10-17T01:44:27;16.30;99.90
59999;DHT22;45859;51.378;6.736;2022-10-17T01:46:59;16.30;99.90
59999;DHT22;45859;51.378;6.736;2022-10-17T01:49:28;16.30;99.90
59999;DHT22;45859;51.378;6.736;2022-10-17T01:52:15;16.30;99.90
59999;DHT22;45859;51.378;6.736;2022-10-17T01:54:51;16.30;99.90
59999;DHT22;45859;51.378;6.736;2022-10-17T01:57:28;16.30;99.90
59999;DHT22;45859;51.378;6.736;2022-10-17T01:59:55;16.40;99.90
59999;DHT22;45859;51.378;6.736;2022-10-17T02:02:23;16.40;99.90
59999;DHT22;45859;51.378;6.736;2022-10-17T02:04:50;16.40;99.90
59999;DHT22;45859;51.378;6.736;2022-10-17T02:07:16;16.40;99.90
59999;DHT22;45859;51.378;6.736;2022-10-17T02:09:42;16.40;99.90
59999;DHT22;45859;51.378;6.736;2022-10-17T02:15:00;16.40;99.90
59999;DHT22;45859;51.378;6.736;2022-10-17T02:20:30;16.30;99.90
59999;DHT22;45859;51.378;6.736;2022-10-17T02:28:30;16.30;99.90
59999;DHT22;45859;51.378;6.736;2022-10-17T02:31:12;16.40;99.90
59999;DHT22;45859;51.378;6.736;2022-10-17T02:33:51;16.40;99.90
59999;DHT22;45859;51.378;6.736;2022-10-17T02:36:22;16.40;99.90
59999;DHT22;45859;51.378;6.736;2022-10-17T02:38:50;16.40;99.90
59999;DHT22;45859;51.378;6.736;2022-10-17T02:41:18;16.40;99.90
59999;DHT22;45859;51.378;6.736;2022-10-17T02:43:45;16.40;99.90
59999;DHT22;45859;51.378;6.736;2022-10-17T02:46:13;16.50;99.90
59999;DHT22;45859;51.378;6.736;2022-10-17T02:48:56;16.40;99.90
59999;DHT22;45859;51.378;6.736;2022-10-17T02:52:11;16.40;99.90
59999;DHT22;45859;51.378;6.736;2022-10-17T02:55:00;16.40;99.90
59999;DHT22;45859;51.378;6.736;2022-10-17T02:57:33;16.40;99.90
59999;DHT22;45859;51.378;6.736;2022-10-17T03:00:03;16.40;99.90
59999;DHT22;45859;51.378;6.736;2022-10-17T03:02:38;16.50;99.90
59999;DHT22;45859;51.378;6.736;2022-10-17T03:05:04;16.50;99.90
59999;DHT22;45859;51.378;6.736;2022-10-17T03:07:30;16.50;99.90
59999;DHT22;45859;51.378;6.736;2022-10-17T03:09:56;16.50;99.90
59999;DHT22;45859;51.378;6.736;2022-10-17T03:12:21;16.50;99.90
59999;DHT22;45859;51.378;6.736;2022-10-17T03:14:47;16.60;99.90
59999;DHT22;45859;51.378;6.736;2022-10-17T03:17:13;16.60;99.90
59999;DHT22;45859;51.378;6.736;2022-10-17T03:19:38;16.60;99.90
59999;DHT22;45859;51.378;6.736;2022-10-17T03:22:04;16.70;99.90
59999;DHT22;45859;51.378;6.736;2022-10-17T03:24:30;16.70;99.90
59999;DHT22;45859;51.378;6.736;2022-10-17T03:26:56;16.70;99.90
59999;DHT22;45859;51.378;6.736;2022-10-17T03:29:22;16.70;99.90
59999;DHT22;45859;51.378;6.736;2022-10-17T03:31:47;16.70;99.90
59999;DHT22;45859;51.378;6.736;2022-10-17T03:34:13;16.70;99.90
59999;DHT22;45859;51.378;6.736;2022-10-17T03:36:41;16.70;99.90
59999;DHT22;45859;51.378;6.736;2022-10-17T03:39:06;16.80;99.90
59999;DHT22;45859;51.378;6.736;2022-10-17T03:41:32;16.80;99.90
59999;DHT22;45859;51.378;6.736;2022-10-17T03:43:58;16.80;99.90
59999;DHT22;45859;51.378;6.736;2022-10-17T03:46:24;16.80;99.90
59999;DHT22;45859;51.378;6.736;2022-10-17T03:48:49;16.80;99.90
59999;DHT22;45859;51.378;6.736;2022-10-17T03:51:15;16.90;99.90
59999;DHT22;45859;51.378;6.736;2022-10-17T03:53:41;16.80;99.90
59999;DHT22;45859;51.378;6.736;2022-10-17T03:56:21;16.80;99.90
59999;DHT22;45859;51.378;6.736;2022-10-17T03:58:47;16.80;99.90
59999;DHT22;45859;51.378;6.736;2022-10-17T04:01:14;16.80;99.90
59999;DHT22;45859;51.378;6.736;2022-10-17T04:03:41;16.80;99.90
59999;DHT22;45859;51.378;6.736;2022-10-17T04:06:10;16.80;99.90
59999;DHT22;45859;51.378;6.736;2022-10-17T04:08:36;16.80;99.90
59999;DHT22;45859;51.378;6.736;2022-10-17T04:11:04;16.80;99.90
59999;DHT22;45859;51.378;6.736;2022-10-17T04:13:31;16.80;99.90
59999;DHT22;45859;51.378;6.736;2022-10-17T04:15:59;16.80;99.90
59999;DHT22;45859;51.378;6.736;2022-10-17T04:18:25;16.80;99.90
59999;DHT22;45859;51.378;6.736;2022-10-17T04:20:51;16.90;99.90
59999;DHT22;45859;51.378;6.736;2022-10-17T04:23:18;16.90;99.90
59999;DHT22;45859;51.378;6.736;2022-10-17T04:25:43;16.90;99.90
59999;DHT22;45859;51.378;6.736;2022-10-17T04:28:09;16.90;99.90
59999;DHT22;45859;51.378;6.736;2022-10-17T04:30:35;16.90;99.90
59999;DHT22;45859;51.378;6.736;2022-10-17T04:33:01;16.90;99.90
59999;DHT22;45859;51.378;6.736;2022-10-17T04:35:27;16.90;99.90
59999;DHT22;45859;51.378;6.736;2022-10-17T04:37:52;16.90;99.90
59999;DHT22;45859;51.378;6.736;2022-10-17T04:40:18;16.90;99.90
59999;DHT22;45859;51.378;6.736;2022-10-17T04:42:45;16.90;99.90
59999;DHT22;45859;51.378;6.736;2022-10-17T04:45:11;16.90;99.90
59999;DHT22;45859;51.378;6.736;2022-10-17T04:47:37;16.90;99.90
59999;DHT22;45859;51.378;6.736;2022-10-17T04:50:03;16.90;99.90
59999;DHT22;45859;51.378;6.736;2022-10-17T04:52:29;16.90;99.90
59999;DHT22;45859;51.378;6.736;2022-10-17T04:54:56;16.90;99.90
59999;DHT22;45859;51.378;6.736;2022-10-17T04:57:22;17.00;99.90
59999;DHT22;45859;51.378;6.736;2022-10-17T04:59:48;17.00;99.90
59999;DHT22;45859;51.378;6.736;2022-10-17T05:02:13;17.00;99.90
59999;DHT22;45859;51.378;6.736;2022-10-17T05:04:40;17.00;99.90
59999;DHT22;45859;51.378;6.736;2022-10-17T05:07:05;17.00;99.90
59999;DHT22;45859;51.378;6.736;2022-10-17T05:09:31;17.10;99.90
59999;DHT22;45859;51.378;6.736;2022-10-17T05:11:57;17.00;99.90
59999;DHT22;45859;51.378;6.736;2022-10-17T05:14:22;17.00;99.90
59999;DHT22;45859;51.378;6.736;2022-10-17T05:16:48;17.30;99.90
59999;DHT22;45859;51.378;6.736;2022-10-17T05:19:14;17.10;99.90
59999;DHT22;45859;51.378;6.736;2022-10-17T05:21:40;17.10;99.90
59999;DHT22;45859;51.378;6.736;2022-10-17T05:24:07;17.10;99.90
59999;DHT22;45859;51.378;6.736;2022-10-17T05:26:33;17.10;99.90
59999;DHT22;45859;51.378;6.736;2022-10-17T05:29:00;17.10;99.90
59999;DHT22;45859;51.378;6.736;2022-10-17T05:31:30;17.10;99.90
59999;DHT22;45859;51.378;6.736;2022-10-17T05:34:00;17.20;99.90
59999;DHT22;45859;51.378;6.736;2022-10-17T05:36:27;17.20;99.90
59999;DHT22;45859;51.378;6.736;2022-10-17T05:38:52;17.20;99.90
59999;DHT22;45859;51.378;6.736;2022-10-17T05:41:18;17.20;99.90
59999;DHT22;45859;51.378;6.736;2022-10-17T05:43:44;17.20;99.90
59999;DHT22;45859;51.378;6.736;2022-10-17T05:46:10;17.20;99.90
59999;DHT22;45859;51.378;6.736;2022-10-17T05:48:36;17.20;99.90
59999;DHT22;45859;51.378;6.736;2022-10-17T05:51:07;17.10;99.90
59999;DHT22;45859;51.378;6.736;2022-10-17T05:53:36;17.00;99.90
59999;DHT22;45859;51.378;6.736;2022-10-17T05:56:04;17.00;99.90
59999;DHT22;45859;51.378;6.736;2022-10-17T05:58:30;17.00;99.90
59999;DHT22;45859;51.378;6.736;2022-10-17T06:00:58;17.00;99.90
59999;DHT22;45859;51.378;6.736;2022-10-17T06:03:24;16.90;99.90
59999;DHT22;45859;51.378;6.736;2022-10-17T06:05:50;16.90;99.90
59999;DHT22;45859;51.378;6.736;2022-10-17T06:08:17;17.00;99.90
59999;DHT22;45859;51.378;6.736;2022-10-17T06:10:45;17.00;99.90
59999;DHT22;45859;51.378;6.736;2022-10-17T06:13:11;17.00;99.90
59999;DHT22;45859;51.378;6.736;2022-10-17T06:15:36;16.90;99.90
59999;DHT22;45859;51.378;6.736;2022-10-17T06:18:02;16.90;99.90
59999;DHT22;45859;51.378;6.736;2022-10-17T06:20:28;17.00;99.90
59999;DHT22;45859;51.378;6.736;2022-10-17T06:22:54;16.90;99.90
59999;DHT22;45859;51.378;6.736;2022-10-17T06:25:19;16.90;99.90
59999;DHT22;45859;51.378;6.736;2022-10-17T06:27:45;16.90;99.90
59999;DHT22;45859;51.378;6.736;2022-10-17T06:30:11;16.90;99.90
59999;DHT22;45859;51.378;6.736;2022-10-17T06:32:36;17.00;99.90
59999;DHT22;45859;51.378;6.736;2022-10-17T06:35:02;17.00;99.90
59999;DHT22;45859;51.378;6.736;2022-10-17T06:37:32;17.10;99.90
59999;DHT22;45859;51.378;6.736;2022-10-17T06:39:58;17.20;99.90
59999;DHT22;45859;51.378;6.736;2022-10-17T06:42:24;17.20;99.90
59999;DHT22;45859;51.378;6.736;2022-10-17T06:44:50;17.30;99.90
59999;DHT22;45859;51.378;6.736;2022-10-17T06:47:15;17.40;99.90
59999;DHT22;45859;51.378;6.736;2022-10-17T06:49:41;17.40;99.90
59999;DHT22;45859;51.378;6.736;2022-10-17T06:52:07;17.40;99.90
59999;DHT22;45859;51.378;6.736;2022-10-17T06:54:32;17.50;99.90
59999;DHT22;45859;51.378;6.736;2022-10-17T06:56:58;17.50;99.90
59999;DHT22;45859;51.378;6.736;2022-10-17T06:59:24;17.50;99.90
59999;DHT22;45859;51.378;6.736;2022-10-17T07:01:49;17.60;99.90
59999;DHT22;45859;51.378;6.736;2022-10-17T07:04:15;17.60;99.90
59999;DHT22;45859;51.378;6.736;2022-10-17T07:06:40;17.70;99.90
59999;DHT22;45859;51.378;6.736;2022-10-17T07:09:06;17.60;99.90
59999;DHT22;45859;51.378;6.736;2022-10-17T07:11:33;17.70;99.90
59999;DHT22;45859;51.378;6.736;2022-10-17T07:14:02;17.70;99.90
59999;DHT22;45859;51.378;6.736;2022-10-17T07:16:28;17.70;99.90
59999;DHT22;45859;51.378;6.736;2022-10-17T07:18:53;17.80;99.90
59999;DHT22;45859;51.378;6.736;2022-10-17T07:21:20;17.90;99.90
59999;DHT22;45859;51.378;6.736;2022-10-17T07:23:46;18.00;99.90
59999;DHT22;45859;51.378;6.736;2022-10-17T07:26:14;18.10;99.90
59999;DHT22;45859;51.378;6.736;2022-10-17T07:28:42;18.20;99.90
59999;DHT22;45859;51.378;6.736;2022-10-17T07:31:15;18.30;99.90
59999;DHT22;45859;51.378;6.736;2022-10-17T07:33:41;18.40;99.90
59999;DHT22;45859;51.378;6.736;2022-10-17T07:36:08;18.50;99.90
59999;DHT22;45859;51.378;6.736;2022-10-17T07:38:34;18.50;99.90
59999;DHT22;45859;51.378;6.736;2022-10-17T07:41:01;18.50;99.90
59999;DHT22;45859;51.378;6.736;2022-10-17T07:43:28;18.50;99.90
59999;DHT22;45859;51.378;6.736;2022-10-17T07:45:54;18.60;99.90
59999;DHT22;45859;51.378;6.736;2022-10-17T07:48:21;18.60;99.90
59999;DHT22;45859;51.378;6.736;2022-10-17T07:50:48;18.60;99.90
59999;DHT22;45859;51.378;6.736;2022-10-17T07:53:14;18.70;99.90
59999;DHT22;45859;51.378;6.736;2022-10-17T07:55:40;18.70;99.90
59999;DHT22;45859;51.378;6.736;2022-10-17T07:58:07;18.80;99.90
59999;DHT22;45859;51.378;6.736;2022-10-17T08:00:34;18.90;99.90
59999;DHT22;45859;51.378;6.736;2022-10-17T08:03:00;19.00;99.90
59999;DHT22;45859;51.378;6.736;2022-10-17T08:05:25;19.10;99.90
59999;DHT22;45859;51.378;6.736;2022-10-17T08:07:51;19.10;99.90
59999;DHT22;45859;51.378;6.736;2022-10-17T08:10:17;19.00;99.90
59999;DHT22;45859;51.378;6.736;2022-10-17T08:12:43;18.90;99.90
59999;DHT22;45859;51.378;6.736;2022-10-17T08:15:10;19.00;99.90
59999;DHT22;45859;51.378;6.736;2022-10-17T08:17:37;19.20;99.90
59999;DHT22;45859;51.378;6.736;2022-10-17T08:20:05;19.50;99.90
59999;DHT22;45859;51.378;6.736;2022-10-17T08:22:31;19.60;99.90
59999;DHT22;45859;51.378;6.736;2022-10-17T08:24:57;19.80;99.90
59999;DHT22;45859;51.378;6.736;2022-10-17T08:27:23;19.80;99.90
59999;DHT22;45859;51.378;6.736;2022-10-17T08:29:50;19.70;99.90
59999;DHT22;45859;51.378;6.736;2022-10-17T08:32:24;19.60;99.90
59999;DHT22;45859;51.378;6.736;2022-10-17T08:34:51;19.80;99.90
59999;DHT22;45859;51.378;6.736;2022-10-17T08:37:17;20.20;99.90
59999;DHT22;45859;51.378;6.736;2022-10-17T08:39:43;20.60;99.90
59999;DHT22;45859;51.378;6.736;2022-10-17T08:42:38;20.60;99.90
59999;DHT22;45859;51.378;6.736;2022-10-17T08:47:37;20.50;99.90
59999;DHT22;45859;51.378;6.736;2022-10-17T08:50:08;20.40;99.90
59999;DHT22;45859;51.378;6.736;2022-10-17T08:52:40;20.20;99.90
59999;DHT22;45859;51.378;6.736;2022-10-17T08:55:15;20.10;99.90
59999;DHT22;45859;51.378;6.736;2022-10-17T08:57:41;20.10;99.90
59999;DHT22;45859;51.378;6.736;2022-10-17T09:00:17;20.20;99.90
59999;DHT22;45859;51.378;6.736;2022-10-17T09:10:54;20.40;99.90
59999;DHT22;45859;51.378;6.736;2022-10-17T09:16:45;20.70;99.90
59999;DHT22;45859;51.378;6.736;2022-10-17T09:19:22;20.90;99.90
59999;DHT22;45859;51.378;6.736;2022-10-17T09:24:51;21.30;99.90
59999;DHT22;45859;51.378;6.736;2022-10-17T09:27:24;21.10;99.90
59999;DHT22;45859;51.378;6.736;2022-10-17T09:32:36;20.50;99.90
59999;DHT22;45859;51.378;6.736;2022-10-17T09:35:02;20.40;99.90
59999;DHT22;45859;51.378;6.736;2022-10-17T09:37:30;20.20;99.90
59999;DHT22;45859;51.378;6.736;2022-10-17T09:39:57;20.10;99.90
59999;DHT22;45859;51.378;6.736;2022-10-17T09:42:25;20.10;99.90
59999;DHT22;45859;51.378;6.736;2022-10-17T09:47:53;19.90;99.90
59999;DHT22;45859;51.378;6.736;2022-10-17T09:50:32;19.80;99.90
59999;DHT22;45859;51.378;6.736;2022-10-17T09:53:02;19.90;99.90
59999;DHT22;45859;51.378;6.736;2022-10-17T09:55:42;19.90;99.90
59999;DHT22;45859;51.378;6.736;2022-10-17T09:58:10;19.90;99.90
59999;DHT22;45859;51.378;6.736;2022-10-17T10:00:46;19.80;99.90
59999;DHT22;45859;51.378;6.736;2022-10-17T10:06:05;19.70;99.90
59999;DHT22;45859;51.378;6.736;2022-10-17T10:08:35;19.70;99.90
59999;DHT22;45859;51.378;6.736;2022-10-17T10:11:04;19.70;99.90
59999;DHT22;45859;51.378;6.736;2022-10-17T10:13:32;19.70;99.90
59999;DHT22;45859;51.378;6.736;2022-10-17T10:16:31;19.60;99.90
59999;DHT22;45859;51.378;6.736;2022-10-17T10:18:57;19.60;99.90
59999;DHT22;45859;51.378;6.736;2022-10-17T10:21:25;19.60;99.90
59999;DHT22;45859;51.378;6.736;2022-10-17T10:24:05;19.80;99.90
59999;DHT22;45859;51.378;6.736;2022-10-17T10:29:18;19.80;99.90
59999;DHT22;45859;51.378;6.736;2022-10-17T10:31:44;20.00;99.90
59999;DHT22;45859;51.378;6.736;2022-10-17T10:34:20;20.10;99.90
59999;DHT22;45859;51.378;6.736;2022-10-17T10:41:56;20.30;99.90
59999;DHT22;45859;51.378;6.736;2022-10-17T10:44:27;20.30;99.90
59999;DHT22;45859;51.378;6.736;2022-10-17T10:49:32;20.20;99.90
59999;DHT22;45859;51.378;6.736;2022-10-17T10:51:59;20.20;99.90
59999;DHT22;45859;51.378;6.736;2022-10-17T10:57:12;20.10;99.90
59999;DHT22;45859;51.378;6.736;2022-10-17T11:00:03;20.00;99.90
59999;DHT22;45859;51.378;6.736;2022-10-17T11:10:18;19.70;99.90
59999;DHT22;45859;51.378;6.736;2022-10-17T11:12:51;19.70;99.90
59999;DHT22;45859;51.378;6.736;2022-10-17T11:15:38;19.60;99.90
59999;DHT22;45859;51.378;6.736;2022-10-17T11:20:55;19.50;99.90
59999;DHT22;45859;51.378;6.736;2022-10-17T11:23:32;19.50;99.90
59999;DHT22;45859;51.378;6.736;2022-10-17T11:26:03;19.40;99.90
59999;DHT22;45859;51.378;6.736;2022-10-17T11:28:30;19.50;99.90
59999;DHT22;45859;51.378;6.736;2022-10-17T11:31:03;19.50;99.90
59999;DHT22;45859;51.378;6.736;2022-10-17T11:33:50;19.50;99.90
59999;DHT22;45859;51.378;6.736;2022-10-17T11:36:20;19.50;99.90
59999;DHT22;45859;51.378;6.736;2022-10-17T11:38:57;19.50;99.90
59999;DHT22;45859;51.378;6.736;2022-10-17T11:41:45;19.50;99.90
59999;DHT22;45859;51.378;6.736;2022-10-17T11:44:34;19.50;99.90
59999;DHT22;45859;51.378;6.736;2022-10-17T11:49:54;19.80;99.90
59999;DHT22;45859;51.378;6.736;2022-10-17T11:52:43;19.90;99.90
59999;DHT22;45859;51.378;6.736;2022-10-17T11:55:24;20.00;99.90
59999;DHT22;45859;51.378;6.736;2022-10-17T12:07:19;20.00;99.90
59999;DHT22;45859;51.378;6.736;2022-10-17T12:12:36;19.90;99.90
59999;DHT22;45859;51.378;6.736;2022-10-17T12:17:37;19.90;99.90
59999;DHT22;45859;51.378;6.736;2022-10-17T12:25:20;19.70;99.90
59999;DHT22;45859;51.378;6.736;2022-10-17T12:27:47;19.60;99.90
59999;DHT22;45859;51.378;6.736;2022-10-17T12:30:24;19.60;99.90
59999;DHT22;45859;51.378;6.736;2022-10-17T12:33:15;19.50;99.90
59999;DHT22;45859;51.378;6.736;2022-10-17T12:35:47;19.40;99.90
59999;DHT22;45859;51.378;6.736;2022-10-17T12:46:04;19.30;99.90
59999;DHT22;45859;51.378;6.736;2022-10-17T12:58:59;19.30;99.90
59999;DHT22;45859;51.378;6.736;2022-10-17T13:01:30;19.30;99.90
59999;DHT22;45859;51.378;6.736;2022-10-17T13:03:58;19.30;99.90
59999;DHT22;45859;51.378;6.736;2022-10-17T13:06:31;19.30;99.90
59999;DHT22;45859;51.378;6.736;2022-10-17T13:09:12;19.30;99.90
59999;DHT22;45859;51.378;6.736;2022-10-17T13:11:41;19.30;99.90
59999;DHT22;45859;51.378;6.736;2022-10-17T13:14:12;19.40;99.90
59999;DHT22;45859;51.378;6.736;2022-10-17T13:16:41;19.30;99.90
59999;DHT22;45859;51.378;6.736;2022-10-17T13:19:18;19.30;99.90
59999;DHT22;45859;51.378;6.736;2022-10-17T13:21:54;19.40;99.90
59999;DHT22;45859;51.378;6.736;2022-10-17T13:24:38;19.40;99.90
59999;DHT22;45859;51.378;6.736;2022-10-17T13:27:06;19.30;99.90
59999;DHT22;45859;51.378;6.736;2022-10-17T13:29:45;19.30;99.90
59999;DHT22;45859;51.378;6.736;2022-10-17T13:32:10;19.30;99.90
59999;DHT22;45859;51.378;6.736;2022-10-17T13:34:36;19.30;99.90
59999;DHT22;45859;51.378;6.736;2022-10-17T13:37:05;19.30;99.90
59999;DHT22;45859;51.378;6.736;2022-10-17T13:39:45;19.30;99.90
59999;DHT22;45859;51.378;6.736;2022-10-17T13:42:26;19.30;99.90
59999;DHT22;45859;51.378;6.736;2022-10-17T13:44:52;19.50;99.90
59999;DHT22;45859;51.378;6.736;2022-10-17T13:47:27;19.50;99.90
59999;DHT22;45859;51.378;6.736;2022-10-17T13:49:53;19.60;99.90
59999;DHT22;45859;51.378;6.736;2022-10-17T13:52:25;19.70;99.90
59999;DHT22;45859;51.378;6.736;2022-10-17T13:54:52;19.80;99.90
59999;DHT22;45859;51.378;6.736;2022-10-17T13:57:21;19.90;99.90
59999;DHT22;45859;51.378;6.736;2022-10-17T13:59:59;20.00;99.90
59999;DHT22;45859;51.378;6.736;2022-10-17T14:02:33;20.10;99.90
59999;DHT22;45859;51.378;6.736;2022-10-17T14:05:07;20.10;99.90
59999;DHT22;45859;51.378;6.736;2022-10-17T14:07:37;20.30;99.90
59999;DHT22;45859;51.378;6.736;2022-10-17T14:10:05;20.30;99.90
59999;DHT22;45859;51.378;6.736;2022-10-17T14:12:32;20.30;99.90
59999;DHT22;45859;51.378;6.736;2022-10-17T14:14:58;20.30;99.90
59999;DHT22;45859;51.378;6.736;2022-10-17T14:17:27;20.30;99.90
59999;DHT22;45859;51.378;6.736;2022-10-17T14:20:00;20.30;99.90
59999;DHT22;45859;51.378;6.736;2022-10-17T14:22:36;20.30;99.90
59999;DHT22;45859;51.378;6.736;2022-10-17T14:25:38;20.30;99.90
59999;DHT22;45859;51.378;6.736;2022-10-17T14:30:41;20.20;99.90
59999;DHT22;45859;51.378;6.736;2022-10-17T14:33:17;20.20;99.90
59999;DHT22;45859;51.378;6.736;2022-10-17T14:35:57;20.20;99.90
59999;DHT22;45859;51.378;6.736;2022-10-17T14:38:24;20.20;99.90
59999;DHT22;45859;51.378;6.736;2022-10-17T14:41:00;20.20;99.90
59999;DHT22;45859;51.378;6.736;2022-10-17T14:43:28;20.30;99.90
59999;DHT22;45859;51.378;6.736;2022-10-17T14:45:59;20.30;99.90
59999;DHT22;45859;51.378;6.736;2022-10-17T14:48:26;20.20;99.90
59999;DHT22;45859;51.378;6.736;2022-10-17T14:51:12;20.20;99.90
59999;DHT22;45859;51.378;6.736;2022-10-17T14:53:41;20.10;99.90
59999;DHT22;45859;51.378;6.736;2022-10-17T14:58:47;20.00;99.90
59999;DHT22;45859;51.378;6.736;2022-10-17T15:01:12;20.00;99.90
59999;DHT22;45859;51.378;6.736;2022-10-17T15:03:38;19.90;99.90
59999;DHT22;45859;51.378;6.736;2022-10-17T15:06:26;20.00;99.90
59999;DHT22;45859;51.378;6.736;2022-10-17T15:08:52;19.90;99.90
59999;DHT22;45859;51.378;6.736;2022-10-17T15:11:18;19.80;99.90
59999;DHT22;45859;51.378;6.736;2022-10-17T15:13:44;19.80;99.90
59999;DHT22;45859;51.378;6.736;2022-10-17T15:16:19;19.70;99.90
59999;DHT22;45859;51.378;6.736;2022-10-17T15:18:44;19.60;99.90
59999;DHT22;45859;51.378;6.736;2022-10-17T15:21:14;19.50;99.90
59999;DHT22;45859;51.378;6.736;2022-10-17T15:23:41;19.40;99.90
59999;DHT22;45859;51.378;6.736;2022-10-17T15:26:21;19.20;99.90
59999;DHT22;45859;51.378;6.736;2022-10-17T15:28:48;19.10;99.90
59999;DHT22;45859;51.378;6.736;2022-10-17T15:31:18;18.90;99.90
59999;DHT22;45859;51.378;6.736;2022-10-17T15:33:45;18.70;99.90
59999;DHT22;45859;51.378;6.736;2022-10-17T15:38:46;18.50;99.90
59999;DHT22;45859;51.378;6.736;2022-10-17T15:41:12;18.40;99.90
59999;DHT22;45859;51.378;6.736;2022-10-17T15:43:37;18.40;99.90
59999;DHT22;45859;51.378;6.736;2022-10-17T15:46:14;18.50;99.90
59999;DHT22;45859;51.378;6.736;2022-10-17T15:48:41;18.50;99.90
59999;DHT22;45859;51.378;6.736;2022-10-17T15:51:07;18.50;99.90
59999;DHT22;45859;51.378;6.736;2022-10-17T15:53:33;18.50;99.90
59999;DHT22;45859;51.378;6.736;2022-10-17T15:55:59;18.80;99.90
59999;DHT22;45859;51.378;6.736;2022-10-17T15:58:26;18.40;99.90
59999;DHT22;45859;51.378;6.736;2022-10-17T16:00:54;18.30;99.90
59999;DHT22;45859;51.378;6.736;2022-10-17T16:03:20;18.40;99.90
59999;DHT22;45859;51.378;6.736;2022-10-17T16:05:46;18.30;99.90
59999;DHT22;45859;51.378;6.736;2022-10-17T16:08:12;18.30;99.90
59999;DHT22;45859;51.378;6.736;2022-10-17T16:10:38;18.20;99.90
59999;DHT22;45859;51.378;6.736;2022-10-17T16:13:04;18.20;99.90
59999;DHT22;45859;51.378;6.736;2022-10-17T16:15:30;18.10;99.90
59999;DHT22;45859;51.378;6.736;2022-10-17T16:17:57;18.10;99.90
59999;DHT22;45859;51.378;6.736;2022-10-17T16:20:23;18.00;99.90
59999;DHT22;45859;51.378;6.736;2022-10-17T16:22:49;18.00;99.90
59999;DHT22;45859;51.378;6.736;2022-10-17T16:25:26;17.90;99.90
59999;DHT22;45859;51.378;6.736;2022-10-17T16:27:55;17.80;99.90
59999;DHT22;45859;51.378;6.736;2022-10-17T16:30:23;17.70;99.90
59999;DHT22;45859;51.378;6.736;2022-10-17T16:32:49;17.60;99.90
59999;DHT22;45859;51.378;6.736;2022-10-17T16:35:18;17.50;99.90
59999;DHT22;45859;51.378;6.736;2022-10-17T16:37:44;17.50;99.90
59999;DHT22;45859;51.378;6.736;2022-10-17T16:40:10;17.40;99.90
59999;DHT22;45859;51.378;6.736;2022-10-17T16:42:36;17.40;99.90
59999;DHT22;45859;51.378;6.736;2022-10-17T16:45:02;17.50;99.90
59999;DHT22;45859;51.378;6.736;2022-10-17T16:47:28;17.40;99.90
59999;DHT22;45859;51.378;6.736;2022-10-17T16:49:54;17.40;99.90
59999;DHT22;45859;51.378;6.736;2022-10-17T16:52:20;17.40;99.90
59999;DHT22;45859;51.378;6.736;2022-10-17T16:54:45;17.30;99.90
59999;DHT22;45859;51.378;6.736;2022-10-17T16:57:11;17.30;99.90
59999;DHT22;45859;51.378;6.736;2022-10-17T16:59:36;17.30;99.90
59999;DHT22;45859;51.378;6.736;2022-10-17T17:02:02;17.20;99.90
59999;DHT22;45859;51.378;6.736;2022-10-17T17:04:28;17.30;99.90
59999;DHT22;45859;51.378;6.736;2022-10-17T17:06:53;17.10;99.90
59999;DHT22;45859;51.378;6.736;2022-10-17T17:09:19;17.10;99.90
59999;DHT22;45859;51.378;6.736;2022-10-17T17:11:44;17.00;99.90
59999;DHT22;45859;51.378;6.736;2022-10-17T17:14:11;17.00;99.90
59999;DHT22;45859;51.378;6.736;2022-10-17T17:16:36;17.00;99.90
59999;DHT22;45859;51.378;6.736;2022-10-17T17:19:08;17.00;99.90
59999;DHT22;45859;51.378;6.736;2022-10-17T17:21:34;17.00;99.90
59999;DHT22;45859;51.378;6.736;2022-10-17T17:24:01;17.00;99.90
59999;DHT22;45859;51.378;6.736;2022-10-17T17:26:29;17.00;99.90
59999;DHT22;45859;51.378;6.736;2022-10-17T17:28:57;17.00;99.90
59999;DHT22;45859;51.378;6.736;2022-10-17T17:31:32;17.00;99.90
59999;DHT22;45859;51.378;6.736;2022-10-17T17:33:58;16.90;99.90
59999;DHT22;45859;51.378;6.736;2022-10-17T17:36:27;16.90;99.90
59999;DHT22;45859;51.378;6.736;2022-10-17T17:38:54;16.90;99.90
59999;DHT22;45859;51.378;6.736;2022-10-17T17:41:20;16.90;99.90
59999;DHT22;45859;51.378;6.736;2022-10-17T17:43:47;16.80;99.90
59999;DHT22;45859;51.378;6.736;2022-10-17T17:46:14;16.80;99.90
59999;DHT22;45859;51.378;6.736;2022-10-17T17:48:41;16.80;99.90